sensor_id;sensor_type;location;lat;lon;timestamp;P1;durP1;ratioP1;P2;durP2;ratioP2
77432;SDS011;66752;48.576;8.876;2024-03-02T00:01:58;14.10;;;7.47;;
77432;SDS011;66752;48.576;8.876;2024-03-02T00:04:24;11.68;;;7.25;;
77432;SDS011;66752;48.576;8.876;2024-03-02T00:06:53;10.60;;;6.97;;
77432;SDS011;66752;48.576;8.876;2024-03-02T00:09:19;8.90;;;5.45;;
77432;SDS011;66752;48.576;8.876;2024-03-02T00:11:45;11.32;;;5.90;;
77432;SDS011;66752;48.576;8.876;2024-03-02T00:14:11;9.13;;;4.95;;
77432;SDS011;66752;48.576;8.876;2024-03-02T00:16:37;11.68;;;5.18;;
77432;SDS011;66752;48.576;8.876;2024-03-02T00:19:05;9.68;;;5.68;;
77432;SDS011;66752;48.576;8.876;2024-03-02T00:21:31;10.15;;;5.22;;
77432;SDS011;66752;48.576;8.876;2024-03-02T00:23:57;7.75;;;5.18;;
77432;SDS011;66752;48.576;8.876;2024-03-02T00:26:24;9.35;;;5.20;;
77432;SDS011;66752;48.576;8.876;2024-03-02T00:28:50;9.30;;;5.03;;
77432;SDS011;66752;48.576;8.876;2024-03-02T00:31:20;9.80;;;5.18;;
77432;SDS011;66752;48.576;8.876;2024-03-02T00:33:47;9.82;;;4.90;;
77432;SDS011;66752;48.576;8.876;2024-03-02T00:36:14;7.93;;;5.13;;
77432;SDS011;66752;48.576;8.876;2024-03-02T00:38:46;11.48;;;5.22;;
77432;SDS011;66752;48.576;8.876;2024-03-02T00:46:23;10.30;;;5.57;;
77432;SDS011;66752;48.576;8.876;2024-03-02T00:48:53;8.45;;;4.75;;
77432;SDS011;66752;48.576;8.876;2024-03-02T00:51:19;10.55;;;5.20;;
77432;SDS011;66752;48.576;8.876;2024-03-02T00:53:46;9.73;;;5.35;;
77432;SDS011;66752;48.576;8.876;2024-03-02T00:56:12;8.98;;;4.90;;
77432;SDS011;66752;48.576;8.876;2024-03-02T00:58:39;8.48;;;4.95;;
77432;SDS011;66752;48.576;8.876;2024-03-02T01:01:05;7.90;;;4.85;;
77432;SDS011;66752;48.576;8.876;2024-03-02T01:05:58;9.50;;;5.53;;
77432;SDS011;66752;48.576;8.876;2024-03-02T01:08:24;9.90;;;5.03;;
77432;SDS011;66752;48.576;8.876;2024-03-02T01:10:51;9.65;;;5.40;;
77432;SDS011;66752;48.576;8.876;2024-03-02T01:13:17;8.63;;;4.88;;
77432;SDS011;66752;48.576;8.876;2024-03-02T01:15:43;8.90;;;5.10;;
77432;SDS011;66752;48.576;8.876;2024-03-02T01:18:09;9.50;;;4.90;;
77432;SDS011;66752;48.576;8.876;2024-03-02T01:20:35;9.65;;;4.68;;
77432;SDS011;66752;48.576;8.876;2024-03-02T01:23:01;8.43;;;4.80;;
77432;SDS011;66752;48.576;8.876;2024-03-02T01:25:27;9.27;;;4.72;;
77432;SDS011;66752;48.576;8.876;2024-03-02T01:27:53;8.93;;;5.40;;
77432;SDS011;66752;48.576;8.876;2024-03-02T01:30:19;9.02;;;4.53;;
77432;SDS011;66752;48.576;8.876;2024-03-02T01:32:46;10.82;;;5.88;;
77432;SDS011;66752;48.576;8.876;2024-03-02T01:35:12;12.35;;;6.32;;
77432;SDS011;66752;48.576;8.876;2024-03-02T01:37:39;9.57;;;5.03;;
77432;SDS011;66752;48.576;8.876;2024-03-02T01:40:05;9.80;;;5.10;;
77432;SDS011;66752;48.576;8.876;2024-03-02T01:42:35;8.68;;;5.30;;
77432;SDS011;66752;48.576;8.876;2024-03-02T01:45:00;9.00;;;5.40;;
77432;SDS011;66752;48.576;8.876;2024-03-02T01:47:27;9.05;;;5.25;;
77432;SDS011;66752;48.576;8.876;2024-03-02T01:49:53;9.50;;;5.60;;
77432;SDS011;66752;48.576;8.876;2024-03-02T01:52:19;12.02;;;5.75;;
77432;SDS011;66752;48.576;8.876;2024-03-02T01:54:45;11.13;;;5.47;;
77432;SDS011;66752;48.576;8.876;2024-03-02T01:57:11;10.25;;;5.45;;
77432;SDS011;66752;48.576;8.876;2024-03-02T01:59:37;10.23;;;5.45;;
77432;SDS011;66752;48.576;8.876;2024-03-02T02:02:03;9.13;;;5.90;;
77432;SDS011;66752;48.576;8.876;2024-03-02T02:04:29;10.35;;;5.65;;
77432;SDS011;66752;48.576;8.876;2024-03-02T02:06:55;11.55;;;5.68;;
77432;SDS011;66752;48.576;8.876;2024-03-02T02:09:22;9.75;;;5.78;;
77432;SDS011;66752;48.576;8.876;2024-03-02T02:11:47;11.55;;;6.05;;
77432;SDS011;66752;48.576;8.876;2024-03-02T02:14:13;10.88;;;6.32;;
77432;SDS011;66752;48.576;8.876;2024-03-02T02:16:39;12.48;;;5.90;;
77432;SDS011;66752;48.576;8.876;2024-03-02T02:19:05;9.45;;;5.68;;
77432;SDS011;66752;48.576;8.876;2024-03-02T02:21:34;9.75;;;5.47;;
77432;SDS011;66752;48.576;8.876;2024-03-02T02:24:00;10.07;;;5.78;;
77432;SDS011;66752;48.576;8.876;2024-03-02T02:26:28;9.55;;;5.65;;
77432;SDS011;66752;48.576;8.876;2024-03-02T02:28:54;11.52;;;6.45;;
77432;SDS011;66752;48.576;8.876;2024-03-02T02:31:20;12.27;;;6.28;;
77432;SDS011;66752;48.576;8.876;2024-03-02T02:33:46;10.45;;;5.88;;
77432;SDS011;66752;48.576;8.876;2024-03-02T02:36:12;9.93;;;5.32;;
77432;SDS011;66752;48.576;8.876;2024-03-02T02:38:40;10.35;;;5.50;;
77432;SDS011;66752;48.576;8.876;2024-03-02T02:41:07;10.95;;;5.78;;
77432;SDS011;66752;48.576;8.876;2024-03-02T02:43:33;10.45;;;5.85;;
77432;SDS011;66752;48.576;8.876;2024-03-02T02:45:59;10.57;;;5.50;;
77432;SDS011;66752;48.576;8.876;2024-03-02T02:48:25;10.40;;;6.25;;
77432;SDS011;66752;48.576;8.876;2024-03-02T02:50:51;10.88;;;5.50;;
77432;SDS011;66752;48.576;8.876;2024-03-02T02:53:17;10.75;;;5.47;;
77432;SDS011;66752;48.576;8.876;2024-03-02T02:55:42;11.65;;;6.38;;
77432;SDS011;66752;48.576;8.876;2024-03-02T02:58:09;11.43;;;6.65;;
77432;SDS011;66752;48.576;8.876;2024-03-02T03:00:35;10.02;;;6.03;;
77432;SDS011;66752;48.576;8.876;2024-03-02T03:03:01;12.20;;;5.65;;
77432;SDS011;66752;48.576;8.876;2024-03-02T03:05:27;9.13;;;5.93;;
77432;SDS011;66752;48.576;8.876;2024-03-02T03:07:53;10.35;;;5.55;;
77432;SDS011;66752;48.576;8.876;2024-03-02T03:10:19;10.25;;;6.03;;
77432;SDS011;66752;48.576;8.876;2024-03-02T03:12:47;9.73;;;5.63;;
77432;SDS011;66752;48.576;8.876;2024-03-02T03:15:14;11.80;;;5.38;;
77432;SDS011;66752;48.576;8.876;2024-03-02T03:17:41;9.15;;;5.10;;
77432;SDS011;66752;48.576;8.876;2024-03-02T03:20:07;12.48;;;6.43;;
77432;SDS011;66752;48.576;8.876;2024-03-02T03:22:36;9.02;;;5.35;;
77432;SDS011;66752;48.576;8.876;2024-03-02T03:25:02;11.88;;;5.43;;
77432;SDS011;66752;48.576;8.876;2024-03-02T03:27:29;13.20;;;5.95;;
77432;SDS011;66752;48.576;8.876;2024-03-02T03:29:55;11.77;;;6.05;;
77432;SDS011;66752;48.576;8.876;2024-03-02T03:32:21;10.23;;;5.90;;
77432;SDS011;66752;48.576;8.876;2024-03-02T03:34:47;11.13;;;5.82;;
77432;SDS011;66752;48.576;8.876;2024-03-02T03:37:13;10.35;;;5.55;;
77432;SDS011;66752;48.576;8.876;2024-03-02T03:39:40;10.85;;;5.78;;
77432;SDS011;66752;48.576;8.876;2024-03-02T03:42:06;9.80;;;5.30;;
77432;SDS011;66752;48.576;8.876;2024-03-02T03:44:32;11.77;;;7.35;;
77432;SDS011;66752;48.576;8.876;2024-03-02T03:46:59;11.32;;;7.43;;
77432;SDS011;66752;48.576;8.876;2024-03-02T03:49:27;12.35;;;6.35;;
77432;SDS011;66752;48.576;8.876;2024-03-02T03:51:53;11.98;;;6.05;;
77432;SDS011;66752;48.576;8.876;2024-03-02T03:54:19;9.98;;;6.22;;
77432;SDS011;66752;48.576;8.876;2024-03-02T03:56:45;10.63;;;5.18;;
77432;SDS011;66752;48.576;8.876;2024-03-02T03:59:11;9.75;;;5.75;;
77432;SDS011;66752;48.576;8.876;2024-03-02T04:01:37;11.43;;;6.30;;
77432;SDS011;66752;48.576;8.876;2024-03-02T04:04:03;9.70;;;5.40;;
77432;SDS011;66752;48.576;8.876;2024-03-02T04:06:29;10.70;;;5.40;;
77432;SDS011;66752;48.576;8.876;2024-03-02T04:08:55;10.43;;;5.70;;
77432;SDS011;66752;48.576;8.876;2024-03-02T04:11:21;11.50;;;5.57;;
77432;SDS011;66752;48.576;8.876;2024-03-02T04:13:47;9.32;;;5.40;;
77432;SDS011;66752;48.576;8.876;2024-03-02T04:16:13;10.95;;;5.95;;
77432;SDS011;66752;48.576;8.876;2024-03-02T04:18:39;11.35;;;6.25;;
77432;SDS011;66752;48.576;8.876;2024-03-02T04:21:05;11.57;;;6.28;;
77432;SDS011;66752;48.576;8.876;2024-03-02T04:23:31;10.45;;;5.43;;
77432;SDS011;66752;48.576;8.876;2024-03-02T04:25:57;12.32;;;5.80;;
77432;SDS011;66752;48.576;8.876;2024-03-02T04:28:23;13.10;;;5.90;;
77432;SDS011;66752;48.576;8.876;2024-03-02T04:30:49;11.80;;;5.55;;
77432;SDS011;66752;48.576;8.876;2024-03-02T04:33:15;12.35;;;6.30;;
77432;SDS011;66752;48.576;8.876;2024-03-02T04:35:41;11.90;;;5.95;;
77432;SDS011;66752;48.576;8.876;2024-03-02T04:38:07;10.93;;;6.03;;
77432;SDS011;66752;48.576;8.876;2024-03-02T04:40:33;10.65;;;5.55;;
77432;SDS011;66752;48.576;8.876;2024-03-02T04:42:59;11.90;;;6.03;;
77432;SDS011;66752;48.576;8.876;2024-03-02T04:45:25;9.45;;;5.63;;
77432;SDS011;66752;48.576;8.876;2024-03-02T04:47:51;11.68;;;5.72;;
77432;SDS011;66752;48.576;8.876;2024-03-02T04:50:17;14.50;;;8.10;;
77432;SDS011;66752;48.576;8.876;2024-03-02T04:52:44;11.52;;;6.75;;
77432;SDS011;66752;48.576;8.876;2024-03-02T04:55:10;13.48;;;7.13;;
77432;SDS011;66752;48.576;8.876;2024-03-02T04:57:36;12.30;;;6.35;;
77432;SDS011;66752;48.576;8.876;2024-03-02T05:00:01;12.70;;;6.57;;
77432;SDS011;66752;48.576;8.876;2024-03-02T05:02:31;13.02;;;6.32;;
77432;SDS011;66752;48.576;8.876;2024-03-02T05:04:57;11.02;;;6.10;;
77432;SDS011;66752;48.576;8.876;2024-03-02T05:07:23;12.77;;;6.57;;
77432;SDS011;66752;48.576;8.876;2024-03-02T05:09:49;12.43;;;6.40;;
77432;SDS011;66752;48.576;8.876;2024-03-02T05:12:15;11.13;;;6.00;;
77432;SDS011;66752;48.576;8.876;2024-03-02T05:15:20;11.48;;;5.95;;
77432;SDS011;66752;48.576;8.876;2024-03-02T05:17:46;13.85;;;6.30;;
77432;SDS011;66752;48.576;8.876;2024-03-02T05:20:12;13.80;;;7.05;;
77432;SDS011;66752;48.576;8.876;2024-03-02T05:22:38;10.25;;;5.85;;
77432;SDS011;66752;48.576;8.876;2024-03-02T05:25:05;11.57;;;5.97;;
77432;SDS011;66752;48.576;8.876;2024-03-02T05:27:31;13.63;;;6.05;;
77432;SDS011;66752;48.576;8.876;2024-03-02T05:29:57;14.15;;;6.72;;
77432;SDS011;66752;48.576;8.876;2024-03-02T05:32:23;14.27;;;6.40;;
77432;SDS011;66752;48.576;8.876;2024-03-02T05:34:49;10.45;;;6.10;;
77432;SDS011;66752;48.576;8.876;2024-03-02T05:37:16;16.55;;;7.22;;
77432;SDS011;66752;48.576;8.876;2024-03-02T05:39:42;10.85;;;5.95;;
77432;SDS011;66752;48.576;8.876;2024-03-02T05:42:10;13.35;;;6.95;;
77432;SDS011;66752;48.576;8.876;2024-03-02T05:44:36;13.70;;;6.57;;
77432;SDS011;66752;48.576;8.876;2024-03-02T05:47:02;11.80;;;6.50;;
77432;SDS011;66752;48.576;8.876;2024-03-02T05:49:29;12.23;;;6.50;;
77432;SDS011;66752;48.576;8.876;2024-03-02T05:51:55;11.43;;;6.03;;
77432;SDS011;66752;48.576;8.876;2024-03-02T05:54:21;10.88;;;6.05;;
77432;SDS011;66752;48.576;8.876;2024-03-02T05:56:47;13.25;;;7.07;;
77432;SDS011;66752;48.576;8.876;2024-03-02T05:59:13;14.52;;;7.85;;
77432;SDS011;66752;48.576;8.876;2024-03-02T06:01:42;12.00;;;6.68;;
77432;SDS011;66752;48.576;8.876;2024-03-02T06:04:09;12.23;;;7.05;;
77432;SDS011;66752;48.576;8.876;2024-03-02T06:06:38;13.77;;;6.68;;
77432;SDS011;66752;48.576;8.876;2024-03-02T06:09:05;14.13;;;7.00;;
77432;SDS011;66752;48.576;8.876;2024-03-02T06:11:36;12.77;;;6.53;;
77432;SDS011;66752;48.576;8.876;2024-03-02T06:14:03;10.00;;;5.95;;
77432;SDS011;66752;48.576;8.876;2024-03-02T06:16:29;13.30;;;6.88;;
77432;SDS011;66752;48.576;8.876;2024-03-02T06:18:55;13.27;;;7.13;;
77432;SDS011;66752;48.576;8.876;2024-03-02T06:23:48;15.15;;;7.85;;
77432;SDS011;66752;48.576;8.876;2024-03-02T06:26:15;12.80;;;7.45;;
77432;SDS011;66752;48.576;8.876;2024-03-02T06:28:41;13.57;;;7.18;;
77432;SDS011;66752;48.576;8.876;2024-03-02T06:31:07;16.48;;;7.03;;
77432;SDS011;66752;48.576;8.876;2024-03-02T06:33:33;11.90;;;6.45;;
77432;SDS011;66752;48.576;8.876;2024-03-02T06:35:58;14.20;;;6.38;;
77432;SDS011;66752;48.576;8.876;2024-03-02T06:38:24;12.00;;;6.40;;
77432;SDS011;66752;48.576;8.876;2024-03-02T06:40:51;12.13;;;5.78;;
77432;SDS011;66752;48.576;8.876;2024-03-02T06:43:16;12.65;;;6.88;;
77432;SDS011;66752;48.576;8.876;2024-03-02T06:45:42;15.13;;;7.32;;
77432;SDS011;66752;48.576;8.876;2024-03-02T06:48:08;13.25;;;7.38;;
77432;SDS011;66752;48.576;8.876;2024-03-02T06:50:35;13.50;;;6.82;;
77432;SDS011;66752;48.576;8.876;2024-03-02T06:53:01;16.27;;;7.93;;
77432;SDS011;66752;48.576;8.876;2024-03-02T06:55:29;11.73;;;6.40;;
77432;SDS011;66752;48.576;8.876;2024-03-02T06:57:55;14.18;;;7.95;;
77432;SDS011;66752;48.576;8.876;2024-03-02T07:00:21;14.27;;;6.35;;
77432;SDS011;66752;48.576;8.876;2024-03-02T07:02:47;13.27;;;6.38;;
77432;SDS011;66752;48.576;8.876;2024-03-02T07:05:13;15.35;;;7.18;;
77432;SDS011;66752;48.576;8.876;2024-03-02T07:07:39;13.43;;;7.40;;
77432;SDS011;66752;48.576;8.876;2024-03-02T07:10:05;14.82;;;6.80;;
77432;SDS011;66752;48.576;8.876;2024-03-02T07:12:32;14.38;;;6.93;;
77432;SDS011;66752;48.576;8.876;2024-03-02T07:14:58;16.70;;;7.97;;
77432;SDS011;66752;48.576;8.876;2024-03-02T07:17:27;19.30;;;9.60;;
77432;SDS011;66752;48.576;8.876;2024-03-02T07:19:53;18.15;;;9.13;;
77432;SDS011;66752;48.576;8.876;2024-03-02T07:22:19;27.65;;;12.50;;
77432;SDS011;66752;48.576;8.876;2024-03-02T07:24:45;31.17;;;14.60;;
77432;SDS011;66752;48.576;8.876;2024-03-02T07:27:12;32.08;;;13.68;;
77432;SDS011;66752;48.576;8.876;2024-03-02T07:29:38;28.88;;;13.40;;
77432;SDS011;66752;48.576;8.876;2024-03-02T07:32:05;25.40;;;11.98;;
77432;SDS011;66752;48.576;8.876;2024-03-02T07:34:31;27.02;;;13.07;;
77432;SDS011;66752;48.576;8.876;2024-03-02T07:36:57;21.52;;;11.23;;
77432;SDS011;66752;48.576;8.876;2024-03-02T07:39:23;20.55;;;9.85;;
77432;SDS011;66752;48.576;8.876;2024-03-02T07:41:49;19.33;;;10.30;;
77432;SDS011;66752;48.576;8.876;2024-03-02T07:44:15;19.10;;;9.82;;
77432;SDS011;66752;48.576;8.876;2024-03-02T07:46:44;15.30;;;8.52;;
77432;SDS011;66752;48.576;8.876;2024-03-02T07:49:11;17.05;;;10.77;;
77432;SDS011;66752;48.576;8.876;2024-03-02T07:51:38;19.08;;;10.05;;
77432;SDS011;66752;48.576;8.876;2024-03-02T07:54:04;16.85;;;10.90;;
77432;SDS011;66752;48.576;8.876;2024-03-02T07:56:30;17.05;;;10.68;;
77432;SDS011;66752;48.576;8.876;2024-03-02T07:58:56;17.52;;;10.25;;
77432;SDS011;66752;48.576;8.876;2024-03-02T08:01:26;16.10;;;8.95;;
77432;SDS011;66752;48.576;8.876;2024-03-02T08:03:51;13.95;;;8.15;;
77432;SDS011;66752;48.576;8.876;2024-03-02T08:06:18;18.23;;;8.60;;
77432;SDS011;66752;48.576;8.876;2024-03-02T08:08:46;13.20;;;7.68;;
77432;SDS011;66752;48.576;8.876;2024-03-02T08:11:12;13.73;;;8.10;;
77432;SDS011;66752;48.576;8.876;2024-03-02T08:13:38;14.25;;;8.27;;
77432;SDS011;66752;48.576;8.876;2024-03-02T08:16:04;15.07;;;8.43;;
77432;SDS011;66752;48.576;8.876;2024-03-02T08:18:34;14.00;;;7.55;;
77432;SDS011;66752;48.576;8.876;2024-03-02T08:21:00;15.57;;;8.05;;
77432;SDS011;66752;48.576;8.876;2024-03-02T08:23:26;14.70;;;7.72;;
77432;SDS011;66752;48.576;8.876;2024-03-02T08:25:52;15.10;;;9.90;;
77432;SDS011;66752;48.576;8.876;2024-03-02T08:28:18;18.60;;;10.77;;
77432;SDS011;66752;48.576;8.876;2024-03-02T08:30:45;19.38;;;11.05;;
77432;SDS011;66752;48.576;8.876;2024-03-02T08:33:11;20.27;;;10.05;;
77432;SDS011;66752;48.576;8.876;2024-03-02T08:35:37;15.35;;;9.10;;
77432;SDS011;66752;48.576;8.876;2024-03-02T08:38:03;22.45;;;11.27;;
77432;SDS011;66752;48.576;8.876;2024-03-02T08:40:29;17.60;;;9.93;;
77432;SDS011;66752;48.576;8.876;2024-03-02T08:42:55;18.02;;;8.80;;
77432;SDS011;66752;48.576;8.876;2024-03-02T08:45:21;17.83;;;9.18;;
77432;SDS011;66752;48.576;8.876;2024-03-02T08:47:47;16.10;;;8.65;;
77432;SDS011;66752;48.576;8.876;2024-03-02T08:50:13;16.73;;;9.40;;
77432;SDS011;66752;48.576;8.876;2024-03-02T08:52:39;18.23;;;9.93;;
77432;SDS011;66752;48.576;8.876;2024-03-02T08:55:06;18.63;;;10.07;;
77432;SDS011;66752;48.576;8.876;2024-03-02T08:57:32;18.15;;;9.75;;
77432;SDS011;66752;48.576;8.876;2024-03-02T08:59:58;16.20;;;9.35;;
77432;SDS011;66752;48.576;8.876;2024-03-02T09:02:24;17.05;;;8.63;;
77432;SDS011;66752;48.576;8.876;2024-03-02T09:04:50;15.50;;;9.02;;
77432;SDS011;66752;48.576;8.876;2024-03-02T09:07:16;14.88;;;8.18;;
77432;SDS011;66752;48.576;8.876;2024-03-02T09:09:42;17.50;;;9.18;;
77432;SDS011;66752;48.576;8.876;2024-03-02T09:12:08;16.92;;;8.45;;
77432;SDS011;66752;48.576;8.876;2024-03-02T09:14:35;16.02;;;8.38;;
77432;SDS011;66752;48.576;8.876;2024-03-02T09:17:02;15.05;;;7.55;;
77432;SDS011;66752;48.576;8.876;2024-03-02T09:19:28;16.48;;;8.55;;
77432;SDS011;66752;48.576;8.876;2024-03-02T09:21:54;13.80;;;8.02;;
77432;SDS011;66752;48.576;8.876;2024-03-02T09:24:23;15.73;;;7.95;;
77432;SDS011;66752;48.576;8.876;2024-03-02T09:26:50;14.85;;;8.00;;
77432;SDS011;66752;48.576;8.876;2024-03-02T09:29:16;12.05;;;7.10;;
77432;SDS011;66752;48.576;8.876;2024-03-02T09:31:42;11.70;;;6.75;;
77432;SDS011;66752;48.576;8.876;2024-03-02T09:34:08;12.55;;;7.00;;
77432;SDS011;66752;48.576;8.876;2024-03-02T09:36:34;13.30;;;5.97;;
77432;SDS011;66752;48.576;8.876;2024-03-02T09:39:00;11.88;;;6.43;;
77432;SDS011;66752;48.576;8.876;2024-03-02T09:41:28;12.35;;;6.00;;
77432;SDS011;66752;48.576;8.876;2024-03-02T09:43:55;14.13;;;7.57;;
77432;SDS011;66752;48.576;8.876;2024-03-02T09:46:21;11.52;;;6.80;;
77432;SDS011;66752;48.576;8.876;2024-03-02T09:48:47;11.57;;;7.05;;
77432;SDS011;66752;48.576;8.876;2024-03-02T09:51:13;13.77;;;6.85;;
77432;SDS011;66752;48.576;8.876;2024-03-02T09:53:39;11.90;;;6.05;;
77432;SDS011;66752;48.576;8.876;2024-03-02T09:56:05;10.18;;;6.32;;
77432;SDS011;66752;48.576;8.876;2024-03-02T09:58:32;12.18;;;6.60;;
77432;SDS011;66752;48.576;8.876;2024-03-02T10:00:58;11.75;;;5.93;;
77432;SDS011;66752;48.576;8.876;2024-03-02T10:03:24;10.25;;;5.95;;
77432;SDS011;66752;48.576;8.876;2024-03-02T10:05:50;10.52;;;6.15;;
77432;SDS011;66752;48.576;8.876;2024-03-02T10:08:16;10.95;;;6.15;;
77432;SDS011;66752;48.576;8.876;2024-03-02T10:10:42;9.13;;;4.97;;
77432;SDS011;66752;48.576;8.876;2024-03-02T10:13:11;18.40;;;7.25;;
77432;SDS011;66752;48.576;8.876;2024-03-02T10:15:38;9.10;;;4.60;;
77432;SDS011;66752;48.576;8.876;2024-03-02T10:18:11;11.43;;;5.93;;
77432;SDS011;66752;48.576;8.876;2024-03-02T10:20:37;12.13;;;6.47;;
77432;SDS011;66752;48.576;8.876;2024-03-02T10:23:10;10.13;;;5.80;;
77432;SDS011;66752;48.576;8.876;2024-03-02T10:25:36;10.57;;;5.65;;
77432;SDS011;66752;48.576;8.876;2024-03-02T10:28:02;9.23;;;5.60;;
77432;SDS011;66752;48.576;8.876;2024-03-02T10:30:31;10.43;;;5.70;;
77432;SDS011;66752;48.576;8.876;2024-03-02T10:32:57;8.27;;;4.72;;
77432;SDS011;66752;48.576;8.876;2024-03-02T10:35:23;9.13;;;5.15;;
77432;SDS011;66752;48.576;8.876;2024-03-02T10:37:49;8.68;;;5.05;;
77432;SDS011;66752;48.576;8.876;2024-03-02T10:40:15;9.43;;;5.45;;
77432;SDS011;66752;48.576;8.876;2024-03-02T10:42:42;9.10;;;5.25;;
77432;SDS011;66752;48.576;8.876;2024-03-02T10:45:12;9.65;;;5.05;;
77432;SDS011;66752;48.576;8.876;2024-03-02T10:47:38;9.27;;;4.60;;
77432;SDS011;66752;48.576;8.876;2024-03-02T10:50:04;9.60;;;5.05;;
77432;SDS011;66752;48.576;8.876;2024-03-02T10:52:33;8.63;;;4.65;;
77432;SDS011;66752;48.576;8.876;2024-03-02T10:54:59;8.70;;;3.83;;
77432;SDS011;66752;48.576;8.876;2024-03-02T10:57:25;8.70;;;4.63;;
77432;SDS011;66752;48.576;8.876;2024-03-02T10:59:53;6.63;;;3.42;;
77432;SDS011;66752;48.576;8.876;2024-03-02T11:02:22;8.00;;;4.47;;
77432;SDS011;66752;48.576;8.876;2024-03-02T11:04:50;10.07;;;4.65;;
77432;SDS011;66752;48.576;8.876;2024-03-02T11:07:17;9.27;;;4.90;;
77432;SDS011;66752;48.576;8.876;2024-03-02T11:10:01;9.45;;;4.53;;
77432;SDS011;66752;48.576;8.876;2024-03-02T11:12:36;7.75;;;3.90;;
77432;SDS011;66752;48.576;8.876;2024-03-02T11:15:02;6.40;;;4.03;;
77432;SDS011;66752;48.576;8.876;2024-03-02T11:17:30;7.35;;;3.72;;
77432;SDS011;66752;48.576;8.876;2024-03-02T11:19:56;7.35;;;4.13;;
77432;SDS011;66752;48.576;8.876;2024-03-02T11:22:22;8.43;;;4.05;;
77432;SDS011;66752;48.576;8.876;2024-03-02T11:24:49;8.55;;;4.28;;
77432;SDS011;66752;48.576;8.876;2024-03-02T11:27:20;6.32;;;3.53;;
77432;SDS011;66752;48.576;8.876;2024-03-02T11:30:02;7.53;;;3.28;;
77432;SDS011;66752;48.576;8.876;2024-03-02T11:32:28;5.53;;;2.70;;
77432;SDS011;66752;48.576;8.876;2024-03-02T11:34:54;10.02;;;3.80;;
77432;SDS011;66752;48.576;8.876;2024-03-02T11:37:20;5.47;;;3.10;;
77432;SDS011;66752;48.576;8.876;2024-03-02T11:39:48;5.32;;;2.78;;
77432;SDS011;66752;48.576;8.876;2024-03-02T11:42:14;5.47;;;2.60;;
77432;SDS011;66752;48.576;8.876;2024-03-02T11:44:43;6.43;;;3.42;;
77432;SDS011;66752;48.576;8.876;2024-03-02T11:47:11;5.20;;;2.70;;
77432;SDS011;66752;48.576;8.876;2024-03-02T11:50:12;6.15;;;2.63;;
77432;SDS011;66752;48.576;8.876;2024-03-02T11:52:31;6.13;;;2.55;;
77432;SDS011;66752;48.576;8.876;2024-03-02T11:54:59;6.07;;;3.00;;
77432;SDS011;66752;48.576;8.876;2024-03-02T11:57:26;5.43;;;2.88;;
77432;SDS011;66752;48.576;8.876;2024-03-02T11:59:56;6.10;;;3.00;;
77432;SDS011;66752;48.576;8.876;2024-03-02T12:02:24;6.43;;;3.05;;
77432;SDS011;66752;48.576;8.876;2024-03-02T12:04:50;5.35;;;2.70;;
77432;SDS011;66752;48.576;8.876;2024-03-02T12:07:19;5.03;;;2.20;;
77432;SDS011;66752;48.576;8.876;2024-03-02T12:09:47;5.18;;;2.00;;
77432;SDS011;66752;48.576;8.876;2024-03-02T12:12:13;4.63;;;2.25;;
77432;SDS011;66752;48.576;8.876;2024-03-02T12:14:49;4.30;;;1.92;;
77432;SDS011;66752;48.576;8.876;2024-03-02T12:17:15;4.05;;;1.63;;
77432;SDS011;66752;48.576;8.876;2024-03-02T12:19:41;4.35;;;1.63;;
77432;SDS011;66752;48.576;8.876;2024-03-02T12:22:07;6.60;;;1.80;;
77432;SDS011;66752;48.576;8.876;2024-03-02T12:24:33;4.70;;;1.70;;
77432;SDS011;66752;48.576;8.876;2024-03-02T12:26:59;4.38;;;1.92;;
77432;SDS011;66752;48.576;8.876;2024-03-02T12:29:26;4.90;;;1.85;;
77432;SDS011;66752;48.576;8.876;2024-03-02T12:31:52;3.78;;;1.60;;
77432;SDS011;66752;48.576;8.876;2024-03-02T12:34:18;4.00;;;1.70;;
77432;SDS011;66752;48.576;8.876;2024-03-02T12:36:47;5.18;;;2.13;;
77432;SDS011;66752;48.576;8.876;2024-03-02T12:39:17;4.28;;;1.70;;
77432;SDS011;66752;48.576;8.876;2024-03-02T12:41:43;3.78;;;1.60;;
77432;SDS011;66752;48.576;8.876;2024-03-02T12:44:09;4.40;;;1.67;;
77432;SDS011;66752;48.576;8.876;2024-03-02T12:46:36;4.75;;;1.40;;
77432;SDS011;66752;48.576;8.876;2024-03-02T12:49:07;6.35;;;1.70;;
77432;SDS011;66752;48.576;8.876;2024-03-02T12:51:34;4.43;;;1.60;;
77432;SDS011;66752;48.576;8.876;2024-03-02T12:54:01;4.18;;;1.73;;
77432;SDS011;66752;48.576;8.876;2024-03-02T12:56:27;3.90;;;1.55;;
77432;SDS011;66752;48.576;8.876;2024-03-02T12:58:53;4.18;;;1.70;;
77432;SDS011;66752;48.576;8.876;2024-03-02T13:03:47;4.07;;;1.60;;
77432;SDS011;66752;48.576;8.876;2024-03-02T13:06:13;4.05;;;1.60;;
77432;SDS011;66752;48.576;8.876;2024-03-02T13:08:39;4.70;;;2.00;;
77432;SDS011;66752;48.576;8.876;2024-03-02T13:11:06;5.45;;;1.75;;
77432;SDS011;66752;48.576;8.876;2024-03-02T13:13:32;3.80;;;1.38;;
77432;SDS011;66752;48.576;8.876;2024-03-02T13:15:59;4.55;;;1.77;;
77432;SDS011;66752;48.576;8.876;2024-03-02T13:18:25;4.28;;;1.63;;
77432;SDS011;66752;48.576;8.876;2024-03-02T13:20:52;4.82;;;1.60;;
77432;SDS011;66752;48.576;8.876;2024-03-02T13:23:18;3.80;;;1.60;;
77432;SDS011;66752;48.576;8.876;2024-03-02T13:25:45;3.90;;;1.80;;
77432;SDS011;66752;48.576;8.876;2024-03-02T13:28:12;3.60;;;1.70;;
77432;SDS011;66752;48.576;8.876;2024-03-02T13:30:38;4.75;;;1.67;;
77432;SDS011;66752;48.576;8.876;2024-03-02T13:33:04;4.18;;;1.55;;
77432;SDS011;66752;48.576;8.876;2024-03-02T13:35:30;3.67;;;1.50;;
77432;SDS011;66752;48.576;8.876;2024-03-02T13:37:56;5.70;;;1.70;;
77432;SDS011;66752;48.576;8.876;2024-03-02T13:40:22;5.18;;;1.83;;
77432;SDS011;66752;48.576;8.876;2024-03-02T13:42:48;4.50;;;1.73;;
77432;SDS011;66752;48.576;8.876;2024-03-02T13:45:16;4.20;;;1.70;;
77432;SDS011;66752;48.576;8.876;2024-03-02T13:47:43;4.03;;;1.65;;
77432;SDS011;66752;48.576;8.876;2024-03-02T13:50:09;6.50;;;2.13;;
77432;SDS011;66752;48.576;8.876;2024-03-02T13:52:35;6.05;;;1.60;;
77432;SDS011;66752;48.576;8.876;2024-03-02T13:55:01;5.22;;;1.65;;
77432;SDS011;66752;48.576;8.876;2024-03-02T13:57:27;4.28;;;1.25;;
77432;SDS011;66752;48.576;8.876;2024-03-02T13:59:53;3.70;;;1.48;;
77432;SDS011;66752;48.576;8.876;2024-03-02T14:02:19;4.85;;;1.55;;
77432;SDS011;66752;48.576;8.876;2024-03-02T14:04:45;4.18;;;1.65;;
77432;SDS011;66752;48.576;8.876;2024-03-02T14:07:17;4.70;;;2.08;;
77432;SDS011;66752;48.576;8.876;2024-03-02T14:09:43;4.25;;;1.67;;
77432;SDS011;66752;48.576;8.876;2024-03-02T14:12:09;4.43;;;1.98;;
77432;SDS011;66752;48.576;8.876;2024-03-02T14:14:35;3.90;;;1.50;;
77432;SDS011;66752;48.576;8.876;2024-03-02T14:17:01;5.20;;;1.70;;
77432;SDS011;66752;48.576;8.876;2024-03-02T14:19:31;4.10;;;1.60;;
77432;SDS011;66752;48.576;8.876;2024-03-02T14:24:23;4.63;;;1.85;;
77432;SDS011;66752;48.576;8.876;2024-03-02T14:26:51;3.67;;;1.52;;
77432;SDS011;66752;48.576;8.876;2024-03-02T14:29:17;4.90;;;2.50;;
77432;SDS011;66752;48.576;8.876;2024-03-02T14:31:43;4.82;;;2.17;;
77432;SDS011;66752;48.576;8.876;2024-03-02T14:34:13;4.43;;;1.70;;
77432;SDS011;66752;48.576;8.876;2024-03-02T14:36:39;6.53;;;1.42;;
77432;SDS011;66752;48.576;8.876;2024-03-02T14:39:06;3.92;;;1.67;;
77432;SDS011;66752;48.576;8.876;2024-03-02T14:41:35;3.75;;;1.40;;
77432;SDS011;66752;48.576;8.876;2024-03-02T14:44:01;3.58;;;1.52;;
77432;SDS011;66752;48.576;8.876;2024-03-02T14:46:27;4.03;;;1.58;;
77432;SDS011;66752;48.576;8.876;2024-03-02T14:48:53;3.92;;;1.52;;
77432;SDS011;66752;48.576;8.876;2024-03-02T14:51:19;4.05;;;1.33;;